sensor_id;sensor_type;location;lat;lon;timestamp;P1;durP1;ratioP1;P2;durP2;ratioP2
15946;SDS011;8072;52.554;7.966;2023-01-16T00:00:59;5.13;;;1.60;;
15946;SDS011;8072;52.554;7.966;2023-01-16T00:03:27;4.80;;;2.13;;
15946;SDS011;8072;52.554;7.966;2023-01-16T00:05:53;7.30;;;1.83;;
15946;SDS011;8072;52.554;7.966;2023-01-16T00:08:18;3.90;;;1.70;;
15946;SDS011;8072;52.554;7.966;2023-01-16T00:10:44;7.03;;;2.20;;
15946;SDS011;8072;52.554;7.966;2023-01-16T00:13:10;6.83;;;2.10;;
15946;SDS011;8072;52.554;7.966;2023-01-16T00:15:37;7.10;;;2.00;;
15946;SDS011;8072;52.554;7.966;2023-01-16T00:18:08;4.53;;;1.97;;
15946;SDS011;8072;52.554;7.966;2023-01-16T00:20:33;5.73;;;2.33;;
15946;SDS011;8072;52.554;7.966;2023-01-16T00:22:59;5.13;;;2.07;;
15946;SDS011;8072;52.554;7.966;2023-01-16T00:25:25;8.67;;;2.30;;
15946;SDS011;8072;52.554;7.966;2023-01-16T00:27:51;6.77;;;1.93;;
15946;SDS011;8072;52.554;7.966;2023-01-16T00:30:16;7.60;;;2.10;;
15946;SDS011;8072;52.554;7.966;2023-01-16T00:32:44;4.03;;;2.03;;
15946;SDS011;8072;52.554;7.966;2023-01-16T00:35:10;9.03;;;2.43;;
15946;SDS011;8072;52.554;7.966;2023-01-16T00:37:36;5.60;;;1.93;;
15946;SDS011;8072;52.554;7.966;2023-01-16T00:40:02;10.23;;;2.30;;
15946;SDS011;8072;52.554;7.966;2023-01-16T00:42:27;8.20;;;2.50;;
15946;SDS011;8072;52.554;7.966;2023-01-16T00:44:53;5.03;;;2.00;;
15946;SDS011;8072;52.554;7.966;2023-01-16T00:47:19;4.77;;;1.93;;
15946;SDS011;8072;52.554;7.966;2023-01-16T00:49:45;6.33;;;2.00;;
15946;SDS011;8072;52.554;7.966;2023-01-16T00:52:10;5.27;;;2.10;;
15946;SDS011;8072;52.554;7.966;2023-01-16T00:54:36;4.67;;;1.93;;
15946;SDS011;8072;52.554;7.966;2023-01-16T00:57:02;8.20;;;2.03;;
15946;SDS011;8072;52.554;7.966;2023-01-16T00:59:28;8.97;;;1.90;;
15946;SDS011;8072;52.554;7.966;2023-01-16T01:01:53;6.77;;;1.73;;
15946;SDS011;8072;52.554;7.966;2023-01-16T01:04:19;4.63;;;1.43;;
15946;SDS011;8072;52.554;7.966;2023-01-16T01:06:45;2.43;;;1.70;;
15946;SDS011;8072;52.554;7.966;2023-01-16T01:09:11;6.13;;;1.83;;
15946;SDS011;8072;52.554;7.966;2023-01-16T01:11:36;3.60;;;1.87;;
15946;SDS011;8072;52.554;7.966;2023-01-16T01:14:02;5.80;;;2.00;;
15946;SDS011;8072;52.554;7.966;2023-01-16T01:16:28;7.67;;;1.73;;
15946;SDS011;8072;52.554;7.966;2023-01-16T01:18:54;6.00;;;1.73;;
15946;SDS011;8072;52.554;7.966;2023-01-16T01:21:20;3.00;;;1.60;;
15946;SDS011;8072;52.554;7.966;2023-01-16T01:23:46;4.83;;;1.57;;
15946;SDS011;8072;52.554;7.966;2023-01-16T01:26:13;2.23;;;1.50;;
15946;SDS011;8072;52.554;7.966;2023-01-16T01:28:40;3.33;;;1.80;;
15946;SDS011;8072;52.554;7.966;2023-01-16T01:31:07;3.63;;;1.60;;
15946;SDS011;8072;52.554;7.966;2023-01-16T01:33:35;3.03;;;1.63;;
15946;SDS011;8072;52.554;7.966;2023-01-16T01:36:02;5.23;;;1.53;;
15946;SDS011;8072;52.554;7.966;2023-01-16T01:38:28;3.83;;;1.33;;
15946;SDS011;8072;52.554;7.966;2023-01-16T01:40:54;3.40;;;1.73;;
15946;SDS011;8072;52.554;7.966;2023-01-16T01:43:19;4.80;;;1.80;;
15946;SDS011;8072;52.554;7.966;2023-01-16T01:45:49;3.80;;;1.70;;
15946;SDS011;8072;52.554;7.966;2023-01-16T01:48:22;2.17;;;1.50;;
15946;SDS011;8072;52.554;7.966;2023-01-16T01:51:02;3.33;;;1.70;;
15946;SDS011;8072;52.554;7.966;2023-01-16T01:56:09;5.27;;;1.63;;
15946;SDS011;8072;52.554;7.966;2023-01-16T01:58:40;2.20;;;1.67;;
15946;SDS011;8072;52.554;7.966;2023-01-16T02:01:07;4.00;;;1.60;;
15946;SDS011;8072;52.554;7.966;2023-01-16T02:03:44;2.67;;;1.63;;
15946;SDS011;8072;52.554;7.966;2023-01-16T02:06:14;2.67;;;1.73;;
15946;SDS011;8072;52.554;7.966;2023-01-16T02:08:45;4.97;;;1.97;;
15946;SDS011;8072;52.554;7.966;2023-01-16T02:11:36;3.73;;;2.07;;
15946;SDS011;8072;52.554;7.966;2023-01-16T02:14:09;3.13;;;1.90;;
15946;SDS011;8072;52.554;7.966;2023-01-16T02:16:37;5.93;;;2.27;;
15946;SDS011;8072;52.554;7.966;2023-01-16T02:31:15;3.63;;;2.00;;
15946;SDS011;8072;52.554;7.966;2023-01-16T02:50:27;3.43;;;1.70;;
15946;SDS011;8072;52.554;7.966;2023-01-16T02:53:41;4.97;;;1.70;;
15946;SDS011;8072;52.554;7.966;2023-01-16T02:56:14;2.87;;;1.70;;
15946;SDS011;8072;52.554;7.966;2023-01-16T02:58:47;3.33;;;1.80;;
15946;SDS011;8072;52.554;7.966;2023-01-16T03:01:16;2.70;;;1.73;;
15946;SDS011;8072;52.554;7.966;2023-01-16T03:03:47;4.67;;;1.73;;
15946;SDS011;8072;52.554;7.966;2023-01-16T03:06:36;2.40;;;1.70;;
15946;SDS011;8072;52.554;7.966;2023-01-16T03:09:19;3.97;;;1.63;;
15946;SDS011;8072;52.554;7.966;2023-01-16T03:19:40;3.77;;;1.70;;
15946;SDS011;8072;52.554;7.966;2023-01-16T03:22:39;2.40;;;1.53;;
15946;SDS011;8072;52.554;7.966;2023-01-16T03:28:35;3.90;;;1.87;;
15946;SDS011;8072;52.554;7.966;2023-01-16T03:39:28;5.83;;;2.40;;
15946;SDS011;8072;52.554;7.966;2023-01-16T03:42:01;4.67;;;2.23;;
15946;SDS011;8072;52.554;7.966;2023-01-16T03:44:34;3.80;;;2.53;;
15946;SDS011;8072;52.554;7.966;2023-01-16T03:47:04;3.10;;;2.30;;
15946;SDS011;8072;52.554;7.966;2023-01-16T03:49:36;3.83;;;2.40;;
15946;SDS011;8072;52.554;7.966;2023-01-16T03:52:05;3.27;;;2.27;;
15946;SDS011;8072;52.554;7.966;2023-01-16T03:57:22;4.63;;;2.60;;
15946;SDS011;8072;52.554;7.966;2023-01-16T03:59:52;4.30;;;2.53;;
15946;SDS011;8072;52.554;7.966;2023-01-16T04:02:40;3.00;;;2.70;;
15946;SDS011;8072;52.554;7.966;2023-01-16T04:05:30;6.27;;;2.87;;
15946;SDS011;8072;52.554;7.966;2023-01-16T04:10:34;4.80;;;2.70;;
15946;SDS011;8072;52.554;7.966;2023-01-16T04:13:05;4.43;;;2.50;;
15946;SDS011;8072;52.554;7.966;2023-01-16T04:15:34;4.73;;;2.40;;
15946;SDS011;8072;52.554;7.966;2023-01-16T04:18:03;5.33;;;2.63;;
15946;SDS011;8072;52.554;7.966;2023-01-16T04:20:29;2.83;;;2.47;;
15946;SDS011;8072;52.554;7.966;2023-01-16T04:22:57;2.90;;;2.50;;
15946;SDS011;8072;52.554;7.966;2023-01-16T04:25:22;3.90;;;2.70;;
15946;SDS011;8072;52.554;7.966;2023-01-16T04:27:48;3.43;;;2.23;;
15946;SDS011;8072;52.554;7.966;2023-01-16T04:30:14;2.73;;;2.20;;
15946;SDS011;8072;52.554;7.966;2023-01-16T04:32:41;3.17;;;2.30;;
15946;SDS011;8072;52.554;7.966;2023-01-16T04:35:07;2.43;;;2.23;;
15946;SDS011;8072;52.554;7.966;2023-01-16T04:37:33;3.27;;;2.10;;
15946;SDS011;8072;52.554;7.966;2023-01-16T04:39:59;3.47;;;2.20;;
15946;SDS011;8072;52.554;7.966;2023-01-16T04:42:26;2.90;;;2.57;;
15946;SDS011;8072;52.554;7.966;2023-01-16T04:44:58;4.27;;;2.50;;
15946;SDS011;8072;52.554;7.966;2023-01-16T04:47:24;3.63;;;2.57;;
15946;SDS011;8072;52.554;7.966;2023-01-16T04:49:50;4.10;;;2.50;;
15946;SDS011;8072;52.554;7.966;2023-01-16T04:52:16;4.97;;;2.70;;
15946;SDS011;8072;52.554;7.966;2023-01-16T04:54:42;3.33;;;2.57;;
15946;SDS011;8072;52.554;7.966;2023-01-16T04:57:07;2.70;;;2.50;;
15946;SDS011;8072;52.554;7.966;2023-01-16T04:59:33;5.97;;;2.67;;
15946;SDS011;8072;52.554;7.966;2023-01-16T05:01:59;4.20;;;2.90;;
15946;SDS011;8072;52.554;7.966;2023-01-16T05:04:25;5.17;;;3.50;;
15946;SDS011;8072;52.554;7.966;2023-01-16T05:06:51;5.27;;;3.70;;
15946;SDS011;8072;52.554;7.966;2023-01-16T05:09:17;5.70;;;4.37;;
15946;SDS011;8072;52.554;7.966;2023-01-16T05:11:43;8.90;;;4.97;;
15946;SDS011;8072;52.554;7.966;2023-01-16T05:14:08;8.27;;;4.57;;
15946;SDS011;8072;52.554;7.966;2023-01-16T05:16:36;8.20;;;4.33;;
15946;SDS011;8072;52.554;7.966;2023-01-16T05:19:03;5.20;;;4.27;;
15946;SDS011;8072;52.554;7.966;2023-01-16T05:21:29;4.67;;;3.93;;
15946;SDS011;8072;52.554;7.966;2023-01-16T05:23:57;10.40;;;3.50;;
15946;SDS011;8072;52.554;7.966;2023-01-16T05:26:23;5.77;;;3.70;;
15946;SDS011;8072;52.554;7.966;2023-01-16T05:28:49;5.77;;;3.03;;
15946;SDS011;8072;52.554;7.966;2023-01-16T05:31:15;4.50;;;2.90;;
15946;SDS011;8072;52.554;7.966;2023-01-16T05:33:41;5.53;;;2.70;;
15946;SDS011;8072;52.554;7.966;2023-01-16T05:36:06;4.83;;;2.80;;
15946;SDS011;8072;52.554;7.966;2023-01-16T05:38:32;2.70;;;2.50;;
15946;SDS011;8072;52.554;7.966;2023-01-16T05:40:58;2.57;;;2.30;;
15946;SDS011;8072;52.554;7.966;2023-01-16T05:43:24;6.33;;;2.43;;
15946;SDS011;8072;52.554;7.966;2023-01-16T05:45:51;2.80;;;2.27;;
15946;SDS011;8072;52.554;7.966;2023-01-16T05:48:17;4.03;;;2.00;;
15946;SDS011;8072;52.554;7.966;2023-01-16T05:50:43;4.53;;;2.70;;
15946;SDS011;8072;52.554;7.966;2023-01-16T05:53:08;5.93;;;2.50;;
15946;SDS011;8072;52.554;7.966;2023-01-16T05:55:52;6.37;;;2.30;;
15946;SDS011;8072;52.554;7.966;2023-01-16T05:58:18;5.37;;;2.40;;
15946;SDS011;8072;52.554;7.966;2023-01-16T06:00:44;5.20;;;2.53;;
15946;SDS011;8072;52.554;7.966;2023-01-16T06:03:10;3.63;;;1.93;;
15946;SDS011;8072;52.554;7.966;2023-01-16T06:05:36;5.63;;;2.50;;
15946;SDS011;8072;52.554;7.966;2023-01-16T06:08:02;4.20;;;2.30;;
15946;SDS011;8072;52.554;7.966;2023-01-16T06:10:29;7.37;;;2.60;;
15946;SDS011;8072;52.554;7.966;2023-01-16T06:12:55;5.03;;;2.77;;
15946;SDS011;8072;52.554;7.966;2023-01-16T06:15:21;7.97;;;3.10;;
15946;SDS011;8072;52.554;7.966;2023-01-16T06:17:48;4.47;;;2.77;;
15946;SDS011;8072;52.554;7.966;2023-01-16T06:20:17;4.57;;;3.03;;
15946;SDS011;8072;52.554;7.966;2023-01-16T06:22:44;4.57;;;3.03;;
15946;SDS011;8072;52.554;7.966;2023-01-16T06:25:10;4.83;;;3.00;;
15946;SDS011;8072;52.554;7.966;2023-01-16T06:27:36;5.33;;;2.80;;
15946;SDS011;8072;52.554;7.966;2023-01-16T06:30:03;6.03;;;2.90;;
15946;SDS011;8072;52.554;7.966;2023-01-16T06:32:30;4.20;;;3.07;;
15946;SDS011;8072;52.554;7.966;2023-01-16T06:34:55;4.67;;;3.00;;
15946;SDS011;8072;52.554;7.966;2023-01-16T06:37:21;4.57;;;2.53;;
15946;SDS011;8072;52.554;7.966;2023-01-16T06:39:47;4.40;;;2.47;;
15946;SDS011;8072;52.554;7.966;2023-01-16T06:42:13;5.00;;;2.67;;
15946;SDS011;8072;52.554;7.966;2023-01-16T06:44:39;5.43;;;2.50;;
15946;SDS011;8072;52.554;7.966;2023-01-16T06:47:05;5.03;;;2.33;;
15946;SDS011;8072;52.554;7.966;2023-01-16T06:49:32;4.93;;;2.50;;
15946;SDS011;8072;52.554;7.966;2023-01-16T06:51:57;4.20;;;2.17;;
15946;SDS011;8072;52.554;7.966;2023-01-16T06:54:25;5.03;;;2.10;;
15946;SDS011;8072;52.554;7.966;2023-01-16T06:56:51;4.60;;;2.53;;
15946;SDS011;8072;52.554;7.966;2023-01-16T06:59:17;3.53;;;2.40;;
15946;SDS011;8072;52.554;7.966;2023-01-16T07:01:43;5.00;;;2.60;;
15946;SDS011;8072;52.554;7.966;2023-01-16T07:04:08;3.43;;;2.03;;
15946;SDS011;8072;52.554;7.966;2023-01-16T07:06:35;3.10;;;2.33;;
15946;SDS011;8072;52.554;7.966;2023-01-16T07:09:01;2.90;;;1.90;;
15946;SDS011;8072;52.554;7.966;2023-01-16T07:11:28;2.47;;;2.03;;
15946;SDS011;8072;52.554;7.966;2023-01-16T07:13:53;5.93;;;2.03;;
15946;SDS011;8072;52.554;7.966;2023-01-16T07:16:39;2.73;;;1.67;;
15946;SDS011;8072;52.554;7.966;2023-01-16T07:19:23;2.93;;;1.70;;
15946;SDS011;8072;52.554;7.966;2023-01-16T07:22:09;1.70;;;1.60;;
15946;SDS011;8072;52.554;7.966;2023-01-16T07:24:55;2.77;;;1.80;;
15946;SDS011;8072;52.554;7.966;2023-01-16T07:27:20;2.50;;;1.60;;
15946;SDS011;8072;52.554;7.966;2023-01-16T07:29:46;6.03;;;1.87;;
15946;SDS011;8072;52.554;7.966;2023-01-16T07:32:12;1.77;;;1.33;;
15946;SDS011;8072;52.554;7.966;2023-01-16T07:34:38;2.03;;;1.60;;
15946;SDS011;8072;52.554;7.966;2023-01-16T07:37:04;4.00;;;1.70;;
15946;SDS011;8072;52.554;7.966;2023-01-16T07:39:32;4.20;;;1.80;;
15946;SDS011;8072;52.554;7.966;2023-01-16T07:42:02;2.93;;;1.57;;
15946;SDS011;8072;52.554;7.966;2023-01-16T07:44:29;1.80;;;1.43;;
15946;SDS011;8072;52.554;7.966;2023-01-16T07:46:54;4.00;;;1.50;;
15946;SDS011;8072;52.554;7.966;2023-01-16T07:49:20;1.80;;;1.60;;
15946;SDS011;8072;52.554;7.966;2023-01-16T07:51:46;4.23;;;1.63;;
15946;SDS011;8072;52.554;7.966;2023-01-16T07:54:12;3.43;;;1.30;;
15946;SDS011;8072;52.554;7.966;2023-01-16T07:56:38;3.47;;;1.60;;
15946;SDS011;8072;52.554;7.966;2023-01-16T07:59:05;3.17;;;1.30;;
15946;SDS011;8072;52.554;7.966;2023-01-16T08:01:31;3.67;;;1.50;;
15946;SDS011;8072;52.554;7.966;2023-01-16T08:03:57;1.50;;;1.40;;
15946;SDS011;8072;52.554;7.966;2023-01-16T08:06:23;1.70;;;1.50;;
15946;SDS011;8072;52.554;7.966;2023-01-16T08:08:49;1.60;;;1.50;;
15946;SDS011;8072;52.554;7.966;2023-01-16T08:11:14;4.73;;;1.60;;
15946;SDS011;8072;52.554;7.966;2023-01-16T08:13:59;1.87;;;1.50;;
15946;SDS011;8072;52.554;7.966;2023-01-16T08:16:25;2.30;;;1.50;;
15946;SDS011;8072;52.554;7.966;2023-01-16T08:18:50;4.33;;;1.50;;
15946;SDS011;8072;52.554;7.966;2023-01-16T08:21:16;3.57;;;1.40;;
15946;SDS011;8072;52.554;7.966;2023-01-16T08:23:42;3.00;;;1.47;;
15946;SDS011;8072;52.554;7.966;2023-01-16T08:26:09;5.30;;;1.70;;
15946;SDS011;8072;52.554;7.966;2023-01-16T08:28:35;2.43;;;1.53;;
15946;SDS011;8072;52.554;7.966;2023-01-16T08:31:06;2.80;;;1.57;;
15946;SDS011;8072;52.554;7.966;2023-01-16T08:33:34;1.90;;;1.50;;
15946;SDS011;8072;52.554;7.966;2023-01-16T08:36:02;3.00;;;1.47;;
15946;SDS011;8072;52.554;7.966;2023-01-16T08:38:28;2.10;;;1.40;;
15946;SDS011;8072;52.554;7.966;2023-01-16T08:40:54;2.73;;;1.70;;
15946;SDS011;8072;52.554;7.966;2023-01-16T08:43:20;3.00;;;1.67;;
15946;SDS011;8072;52.554;7.966;2023-01-16T08:46:04;2.37;;;1.70;;
15946;SDS011;8072;52.554;7.966;2023-01-16T08:49:04;1.60;;;1.40;;
15946;SDS011;8072;52.554;7.966;2023-01-16T08:51:52;1.70;;;1.30;;
15946;SDS011;8072;52.554;7.966;2023-01-16T08:54:18;3.43;;;1.70;;
15946;SDS011;8072;52.554;7.966;2023-01-16T08:56:44;2.23;;;1.50;;
15946;SDS011;8072;52.554;7.966;2023-01-16T08:59:09;2.47;;;1.60;;
15946;SDS011;8072;52.554;7.966;2023-01-16T09:01:36;3.63;;;1.70;;
15946;SDS011;8072;52.554;7.966;2023-01-16T09:04:03;1.60;;;1.50;;
15946;SDS011;8072;52.554;7.966;2023-01-16T09:06:30;2.73;;;1.63;;
15946;SDS011;8072;52.554;7.966;2023-01-16T09:08:55;2.03;;;1.47;;
15946;SDS011;8072;52.554;7.966;2023-01-16T09:11:21;2.13;;;1.30;;
15946;SDS011;8072;52.554;7.966;2023-01-16T09:14:05;3.47;;;1.60;;
15946;SDS011;8072;52.554;7.966;2023-01-16T09:16:31;3.53;;;1.93;;
15946;SDS011;8072;52.554;7.966;2023-01-16T09:18:57;2.13;;;1.50;;
15946;SDS011;8072;52.554;7.966;2023-01-16T09:21:23;4.10;;;1.50;;
15946;SDS011;8072;52.554;7.966;2023-01-16T09:23:49;1.70;;;1.10;;
15946;SDS011;8072;52.554;7.966;2023-01-16T09:26:16;1.53;;;1.20;;
15946;SDS011;8072;52.554;7.966;2023-01-16T09:28:42;2.90;;;1.70;;
15946;SDS011;8072;52.554;7.966;2023-01-16T09:31:08;2.33;;;1.50;;
15946;SDS011;8072;52.554;7.966;2023-01-16T09:33:34;3.10;;;1.33;;
15946;SDS011;8072;52.554;7.966;2023-01-16T09:36:02;4.07;;;1.60;;
15946;SDS011;8072;52.554;7.966;2023-01-16T09:38:28;3.10;;;1.43;;
15946;SDS011;8072;52.554;7.966;2023-01-16T09:40:55;3.93;;;2.40;;
15946;SDS011;8072;52.554;7.966;2023-01-16T09:46:16;1.80;;;1.40;;
15946;SDS011;8072;52.554;7.966;2023-01-16T09:49:01;2.10;;;1.50;;
15946;SDS011;8072;52.554;7.966;2023-01-16T09:51:33;2.30;;;1.40;;
15946;SDS011;8072;52.554;7.966;2023-01-16T09:54:06;2.47;;;1.67;;
15946;SDS011;8072;52.554;7.966;2023-01-16T09:57:00;1.83;;;1.57;;
15946;SDS011;8072;52.554;7.966;2023-01-16T09:59:48;2.27;;;1.80;;
15946;SDS011;8072;52.554;7.966;2023-01-16T10:02:26;3.30;;;1.70;;
15946;SDS011;8072;52.554;7.966;2023-01-16T10:04:56;1.90;;;1.70;;
15946;SDS011;8072;52.554;7.966;2023-01-16T10:26:28;3.23;;;1.83;;
15946;SDS011;8072;52.554;7.966;2023-01-16T10:31:48;4.27;;;2.10;;
15946;SDS011;8072;52.554;7.966;2023-01-16T10:34:23;2.73;;;1.77;;
15946;SDS011;8072;52.554;7.966;2023-01-16T10:37:11;3.27;;;1.70;;
15946;SDS011;8072;52.554;7.966;2023-01-16T10:39:37;2.00;;;1.80;;
15946;SDS011;8072;52.554;7.966;2023-01-16T10:44:54;6.03;;;1.87;;
15946;SDS011;8072;52.554;7.966;2023-01-16T10:47:39;6.47;;;2.03;;
15946;SDS011;8072;52.554;7.966;2023-01-16T10:50:24;5.43;;;1.90;;
15946;SDS011;8072;52.554;7.966;2023-01-16T10:52:51;3.60;;;1.90;;
15946;SDS011;8072;52.554;7.966;2023-01-16T10:55:18;2.50;;;1.80;;
15946;SDS011;8072;52.554;7.966;2023-01-16T10:57:46;3.83;;;1.80;;
15946;SDS011;8072;52.554;7.966;2023-01-16T11:00:26;2.40;;;1.83;;
15946;SDS011;8072;52.554;7.966;2023-01-16T11:03:19;2.53;;;1.60;;
15946;SDS011;8072;52.554;7.966;2023-01-16T11:05:44;3.47;;;1.67;;
15946;SDS011;8072;52.554;7.966;2023-01-16T11:08:11;2.00;;;1.70;;
15946;SDS011;8072;52.554;7.966;2023-01-16T11:10:40;3.47;;;1.87;;
15946;SDS011;8072;52.554;7.966;2023-01-16T11:13:28;4.00;;;1.90;;
15946;SDS011;8072;52.554;7.966;2023-01-16T11:18:57;5.37;;;2.10;;
15946;SDS011;8072;52.554;7.966;2023-01-16T11:21:28;3.13;;;1.73;;
15946;SDS011;8072;52.554;7.966;2023-01-16T11:24:14;4.40;;;2.27;;
15946;SDS011;8072;52.554;7.966;2023-01-16T11:26:45;3.07;;;1.80;;
15946;SDS011;8072;52.554;7.966;2023-01-16T11:29:17;6.83;;;2.10;;
15946;SDS011;8072;52.554;7.966;2023-01-16T11:34:21;4.20;;;1.70;;
15946;SDS011;8072;52.554;7.966;2023-01-16T11:36:54;4.63;;;1.67;;
15946;SDS011;8072;52.554;7.966;2023-01-16T11:39:24;2.93;;;1.70;;
15946;SDS011;8072;52.554;7.966;2023-01-16T11:41:54;3.27;;;1.60;;
15946;SDS011;8072;52.554;7.966;2023-01-16T11:44:24;3.43;;;1.73;;
15946;SDS011;8072;52.554;7.966;2023-01-16T11:47:17;3.97;;;1.67;;
15946;SDS011;8072;52.554;7.966;2023-01-16T11:49:48;4.83;;;1.50;;
15946;SDS011;8072;52.554;7.966;2023-01-16T11:52:18;5.73;;;1.70;;
15946;SDS011;8072;52.554;7.966;2023-01-16T11:55:00;2.67;;;1.60;;
15946;SDS011;8072;52.554;7.966;2023-01-16T12:06:01;1.50;;;1.30;;
15946;SDS011;8072;52.554;7.966;2023-01-16T12:11:48;5.20;;;2.10;;
15946;SDS011;8072;52.554;7.966;2023-01-16T12:26:15;2.33;;;1.40;;
15946;SDS011;8072;52.554;7.966;2023-01-16T12:36:48;1.60;;;1.30;;
15946;SDS011;8072;52.554;7.966;2023-01-16T12:56:27;1.30;;;1.20;;
15946;SDS011;8072;52.554;7.966;2023-01-16T12:59:38;1.27;;;1.17;;
15946;SDS011;8072;52.554;7.966;2023-01-16T13:05:04;2.83;;;1.10;;
15946;SDS011;8072;52.554;7.966;2023-01-16T13:07:40;2.50;;;1.20;;
15946;SDS011;8072;52.554;7.966;2023-01-16T13:10:35;1.10;;;1.10;;
15946;SDS011;8072;52.554;7.966;2023-01-16T13:13:24;1.23;;;1.13;;
15946;SDS011;8072;52.554;7.966;2023-01-16T13:15:57;1.93;;;1.30;;
15946;SDS011;8072;52.554;7.966;2023-01-16T13:18:25;1.30;;;1.20;;
15946;SDS011;8072;52.554;7.966;2023-01-16T13:21:00;1.17;;;1.10;;
15946;SDS011;8072;52.554;7.966;2023-01-16T13:26:06;1.20;;;1.07;;
15946;SDS011;8072;52.554;7.966;2023-01-16T13:31:11;1.97;;;0.97;;
15946;SDS011;8072;52.554;7.966;2023-01-16T13:34:10;1.07;;;1.07;;
15946;SDS011;8072;52.554;7.966;2023-01-16T13:41:53;2.20;;;1.50;;
15946;SDS011;8072;52.554;7.966;2023-01-16T13:44:33;2.33;;;1.10;;
15946;SDS011;8072;52.554;7.966;2023-01-16T13:47:21;0.83;;;0.80;;
15946;SDS011;8072;52.554;7.966;2023-01-16T13:49:51;1.07;;;1.00;;
15946;SDS011;8072;52.554;7.966;2023-01-16T13:52:22;0.93;;;0.93;;
15946;SDS011;8072;52.554;7.966;2023-01-16T13:54:52;1.03;;;1.00;;
15946;SDS011;8072;52.554;7.966;2023-01-16T13:57:22;1.73;;;1.10;;
15946;SDS011;8072;52.554;7.966;2023-01-16T13:59:51;1.00;;;1.00;;
15946;SDS011;8072;52.554;7.966;2023-01-16T14:02:44;1.10;;;1.00;;
15946;SDS011;8072;52.554;7.966;2023-01-16T14:05:20;1.03;;;0.97;;
15946;SDS011;8072;52.554;7.966;2023-01-16T14:10:39;1.20;;;1.10;;
15946;SDS011;8072;52.554;7.966;2023-01-16T14:21:24;1.10;;;1.00;;
15946;SDS011;8072;52.554;7.966;2023-01-16T14:24:00;1.93;;;1.20;;
15946;SDS011;8072;52.554;7.966;2023-01-16T14:26:35;1.40;;;1.23;;
15946;SDS011;8072;52.554;7.966;2023-01-16T14:34:25;2.20;;;0.97;;
15946;SDS011;8072;52.554;7.966;2023-01-16T14:37:05;1.90;;;1.10;;
15946;SDS011;8072;52.554;7.966;2023-01-16T14:39:47;1.13;;;1.00;;
15946;SDS011;8072;52.554;7.966;2023-01-16T14:47:51;2.17;;;1.10;;
15946;SDS011;8072;52.554;7.966;2023-01-16T14:50:44;1.30;;;1.20;;
15946;SDS011;8072;52.554;7.966;2023-01-16T14:53:37;1.20;;;0.80;;
15946;SDS011;8072;52.554;7.966;2023-01-16T14:56:25;1.93;;;1.20;;
15946;SDS011;8072;52.554;7.966;2023-01-16T14:58:57;1.40;;;1.10;;
15946;SDS011;8072;52.554;7.966;2023-01-16T15:01:46;1.10;;;1.00;;
15946;SDS011;8072;52.554;7.966;2023-01-16T15:07:39;0.90;;;0.90;;
15946;SDS011;8072;52.554;7.966;2023-01-16T15:10:16;0.93;;;0.90;;
15946;SDS011;8072;52.554;7.966;2023-01-16T15:12:49;1.77;;;0.90;;
15946;SDS011;8072;52.554;7.966;2023-01-16T15:17:49;3.03;;;1.10;;
15946;SDS011;8072;52.554;7.966;2023-01-16T15:20:35;1.63;;;0.90;;
15946;SDS011;8072;52.554;7.966;2023-01-16T15:31:00;1.33;;;1.13;;
15946;SDS011;8072;52.554;7.966;2023-01-16T15:33:31;0.80;;;0.80;;
15946;SDS011;8072;52.554;7.966;2023-01-16T15:36:19;1.10;;;1.00;;
15946;SDS011;8072;52.554;7.966;2023-01-16T15:38:48;1.00;;;0.90;;
15946;SDS011;8072;52.554;7.966;2023-01-16T15:41:32;1.20;;;1.07;;
15946;SDS011;8072;52.554;7.966;2023-01-16T15:44:17;1.60;;;1.10;;
15946;SDS011;8072;52.554;7.966;2023-01-16T15:52:34;1.40;;;1.17;;
15946;SDS011;8072;52.554;7.966;2023-01-16T15:58:14;1.20;;;1.10;;
15946;SDS011;8072;52.554;7.966;2023-01-16T16:00:57;3.50;;;1.23;;
15946;SDS011;8072;52.554;7.966;2023-01-16T16:03:23;1.17;;;1.10;;
15946;SDS011;8072;52.554;7.966;2023-01-16T16:06:05;1.17;;;1.00;;
15946;SDS011;8072;52.554;7.966;2023-01-16T16:08:37;2.43;;;1.00;;
15946;SDS011;8072;52.554;7.966;2023-01-16T16:11:06;1.30;;;1.17;;
15946;SDS011;8072;52.554;7.966;2023-01-16T16:13:52;1.00;;;0.90;;
15946;SDS011;8072;52.554;7.966;2023-01-16T16:16:21;1.03;;;0.97;;
15946;SDS011;8072;52.554;7.966;2023-01-16T16:19:07;1.10;;;1.00;;
15946;SDS011;8072;52.554;7.966;2023-01-16T16:21:47;2.20;;;1.10;;
15946;SDS011;8072;52.554;7.966;2023-01-16T16:24:34;0.90;;;0.90;;
15946;SDS011;8072;52.554;7.966;2023-01-16T16:27:06;1.20;;;0.90;;
15946;SDS011;8072;52.554;7.966;2023-01-16T16:29:36;1.23;;;1.07;;
15946;SDS011;8072;52.554;7.966;2023-01-16T16:32:02;1.10;;;1.10;;
15946;SDS011;8072;52.554;7.966;2023-01-16T16:34:30;1.20;;;0.93;;
15946;SDS011;8072;52.554;7.966;2023-01-16T16:36:58;1.10;;;1.07;;
15946;SDS011;8072;52.554;7.966;2023-01-16T16:42:18;1.20;;;1.10;;
15946;SDS011;8072;52.554;7.966;2023-01-16T16:47:34;1.27;;;1.10;;
15946;SDS011;8072;52.554;7.966;2023-01-16T16:50:23;1.37;;;1.27;;
15946;SDS011;8072;52.554;7.966;2023-01-16T16:55:48;1.47;;;1.10;;
15946;SDS011;8072;52.554;7.966;2023-01-16T16:58:18;1.10;;;1.10;;
15946;SDS011;8072;52.554;7.966;2023-01-16T17:00:48;1.30;;;1.20;;
15946;SDS011;8072;52.554;7.966;2023-01-16T17:03:23;3.60;;;2.67;;
15946;SDS011;8072;52.554;7.966;2023-01-16T17:05:51;1.70;;;1.57;;
15946;SDS011;8072;52.554;7.966;2023-01-16T17:08:20;1.50;;;1.40;;
15946;SDS011;8072;52.554;7.966;2023-01-16T17:10:55;1.50;;;1.40;;
15946;SDS011;8072;52.554;7.966;2023-01-16T17:13:23;2.20;;;1.70;;
15946;SDS011;8072;52.554;7.966;2023-01-16T17:15:56;2.17;;;1.40;;
15946;SDS011;8072;52.554;7.966;2023-01-16T17:18:24;1.47;;;1.37;;
15946;SDS011;8072;52.554;7.966;2023-01-16T17:20:51;1.93;;;1.73;;
15946;SDS011;8072;52.554;7.966;2023-01-16T17:23:20;1.87;;;1.77;;
15946;SDS011;8072;52.554;7.966;2023-01-16T17:25:47;1.97;;;1.77;;
15946;SDS011;8072;52.554;7.966;2023-01-16T17:28:13;1.60;;;1.40;;
15946;SDS011;8072;52.554;7.966;2023-01-16T17:30:39;3.27;;;1.50;;
15946;SDS011;8072;52.554;7.966;2023-01-16T17:35:38;2.03;;;1.83;;
15946;SDS011;8072;52.554;7.966;2023-01-16T17:38:08;3.97;;;2.60;;
15946;SDS011;8072;52.554;7.966;2023-01-16T17:40:36;2.30;;;1.60;;
15946;SDS011;8072;52.554;7.966;2023-01-16T17:43:02;2.70;;;1.90;;
15946;SDS011;8072;52.554;7.966;2023-01-16T17:45:47;5.83;;;2.97;;
15946;SDS011;8072;52.554;7.966;2023-01-16T17:48:21;3.57;;;2.40;;
15946;SDS011;8072;52.554;7.966;2023-01-16T17:50:54;13.00;;;4.83;;
15946;SDS011;8072;52.554;7.966;2023-01-16T17:53:21;9.10;;;5.40;;
15946;SDS011;8072;52.554;7.966;2023-01-16T17:55:49;2.80;;;2.13;;
15946;SDS011;8072;52.554;7.966;2023-01-16T17:58:36;2.40;;;2.00;;
15946;SDS011;8072;52.554;7.966;2023-01-16T18:01:19;7.23;;;3.13;;
15946;SDS011;8072;52.554;7.966;2023-01-16T18:03:50;2.93;;;2.60;;
15946;SDS011;8072;52.554;7.966;2023-01-16T18:06:20;3.27;;;1.97;;
15946;SDS011;8072;52.554;7.966;2023-01-16T18:08:47;2.20;;;2.00;;
15946;SDS011;8072;52.554;7.966;2023-01-16T18:11:14;2.27;;;1.80;;
15946;SDS011;8072;52.554;7.966;2023-01-16T18:13:58;2.03;;;1.83;;
15946;SDS011;8072;52.554;7.966;2023-01-16T18:16:42;2.10;;;1.90;;
15946;SDS011;8072;52.554;7.966;2023-01-16T18:19:26;3.90;;;1.90;;
15946;SDS011;8072;52.554;7.966;2023-01-16T18:21:52;2.30;;;2.10;;
15946;SDS011;8072;52.554;7.966;2023-01-16T18:24:32;2.30;;;2.07;;
15946;SDS011;8072;52.554;7.966;2023-01-16T18:26:59;2.20;;;2.00;;
15946;SDS011;8072;52.554;7.966;2023-01-16T18:29:27;2.57;;;2.03;;
15946;SDS011;8072;52.554;7.966;2023-01-16T18:31:53;2.73;;;2.10;;
15946;SDS011;8072;52.554;7.966;2023-01-16T18:34:39;2.17;;;1.97;;
15946;SDS011;8072;52.554;7.966;2023-01-16T18:37:05;1.80;;;1.70;;
15946;SDS011;8072;52.554;7.966;2023-01-16T18:39:31;2.53;;;2.00;;
15946;SDS011;8072;52.554;7.966;2023-01-16T18:42:15;1.77;;;1.67;;
15946;SDS011;8072;52.554;7.966;2023-01-16T18:45:00;2.20;;;2.00;;
15946;SDS011;8072;52.554;7.966;2023-01-16T18:47:45;2.87;;;1.80;;
15946;SDS011;8072;52.554;7.966;2023-01-16T18:50:29;2.20;;;1.97;;
15946;SDS011;8072;52.554;7.966;2023-01-16T18:53:25;2.57;;;1.87;;